sensor_id;sensor_type;location;lat;lon;timestamp;P1;durP1;ratioP1;P2;durP2;ratioP2
76689;SDS011;70102;44.506;0.220;2023-05-16T00:04:20;2.00;;;1.50;;
76689;SDS011;70102;44.506;0.220;2023-05-16T00:09:52;2.80;;;1.53;;
76689;SDS011;70102;44.506;0.220;2023-05-16T00:15:27;2.97;;;1.40;;
76689;SDS011;70102;44.506;0.220;2023-05-16T00:20:58;1.80;;;1.23;;
76689;SDS011;70102;44.506;0.220;2023-05-16T00:26:32;3.07;;;1.40;;
76689;SDS011;70102;44.506;0.220;2023-05-16T00:32:06;2.57;;;1.30;;
76689;SDS011;70102;44.506;0.220;2023-05-16T00:37:38;4.03;;;1.40;;
76689;SDS011;70102;44.506;0.220;2023-05-16T00:43:12;1.53;;;1.30;;
76689;SDS011;70102;44.506;0.220;2023-05-16T00:48:44;1.13;;;1.03;;
76689;SDS011;70102;44.506;0.220;2023-05-16T00:54:16;1.40;;;1.23;;
76689;SDS011;70102;44.506;0.220;2023-05-16T00:59:48;4.03;;;1.37;;
76689;SDS011;70102;44.506;0.220;2023-05-16T01:05:21;3.33;;;1.70;;
76689;SDS011;70102;44.506;0.220;2023-05-16T01:10:58;2.53;;;1.80;;
76689;SDS011;70102;44.506;0.220;2023-05-16T01:16:28;4.43;;;1.80;;
76689;SDS011;70102;44.506;0.220;2023-05-16T01:22:01;2.40;;;1.90;;
76689;SDS011;70102;44.506;0.220;2023-05-16T01:27:31;7.30;;;1.97;;
76689;SDS011;70102;44.506;0.220;2023-05-16T01:33:05;2.10;;;1.90;;
76689;SDS011;70102;44.506;0.220;2023-05-16T01:38:38;3.03;;;1.77;;
76689;SDS011;70102;44.506;0.220;2023-05-16T01:44:15;3.53;;;2.07;;
76689;SDS011;70102;44.506;0.220;2023-05-16T01:49:56;5.17;;;1.97;;
76689;SDS011;70102;44.506;0.220;2023-05-16T01:55:21;4.30;;;2.20;;
76689;SDS011;70102;44.506;0.220;2023-05-16T02:00:52;3.07;;;2.30;;
76689;SDS011;70102;44.506;0.220;2023-05-16T02:06:24;3.93;;;2.37;;
76689;SDS011;70102;44.506;0.220;2023-05-16T02:11:57;5.53;;;2.33;;
76689;SDS011;70102;44.506;0.220;2023-05-16T02:17:29;6.47;;;2.63;;
76689;SDS011;70102;44.506;0.220;2023-05-16T02:23:02;3.77;;;2.77;;
76689;SDS011;70102;44.506;0.220;2023-05-16T02:28:35;4.63;;;2.33;;
76689;SDS011;70102;44.506;0.220;2023-05-16T02:34:07;3.40;;;2.50;;
76689;SDS011;70102;44.506;0.220;2023-05-16T02:39:41;2.93;;;2.63;;
76689;SDS011;70102;44.506;0.220;2023-05-16T02:45:14;4.40;;;2.77;;
76689;SDS011;70102;44.506;0.220;2023-05-16T02:50:46;3.60;;;3.03;;
76689;SDS011;70102;44.506;0.220;2023-05-16T02:56:18;3.10;;;2.80;;
76689;SDS011;70102;44.506;0.220;2023-05-16T03:01:51;3.33;;;2.70;;
76689;SDS011;70102;44.506;0.220;2023-05-16T03:07:23;5.20;;;2.53;;
76689;SDS011;70102;44.506;0.220;2023-05-16T03:12:56;2.60;;;2.27;;
76689;SDS011;70102;44.506;0.220;2023-05-16T03:18:28;6.00;;;2.37;;
76689;SDS011;70102;44.506;0.220;2023-05-16T03:24:01;2.27;;;2.13;;
76689;SDS011;70102;44.506;0.220;2023-05-16T03:29:34;3.50;;;2.70;;
76689;SDS011;70102;44.506;0.220;2023-05-16T03:35:06;2.27;;;2.07;;
76689;SDS011;70102;44.506;0.220;2023-05-16T03:40:40;4.63;;;2.13;;
76689;SDS011;70102;44.506;0.220;2023-05-16T03:46:12;3.10;;;1.90;;
76689;SDS011;70102;44.506;0.220;2023-05-16T03:51:44;3.40;;;2.00;;
76689;SDS011;70102;44.506;0.220;2023-05-16T03:57:17;1.87;;;1.60;;
76689;SDS011;70102;44.506;0.220;2023-05-16T04:02:50;5.27;;;2.87;;
76689;SDS011;70102;44.506;0.220;2023-05-16T04:08:23;2.33;;;1.93;;
76689;SDS011;70102;44.506;0.220;2023-05-16T04:13:56;3.30;;;1.90;;
76689;SDS011;70102;44.506;0.220;2023-05-16T04:19:29;1.87;;;1.77;;
76689;SDS011;70102;44.506;0.220;2023-05-16T04:25:02;3.33;;;2.13;;
76689;SDS011;70102;44.506;0.220;2023-05-16T04:30:34;2.03;;;1.87;;
76689;SDS011;70102;44.506;0.220;2023-05-16T04:36:08;3.57;;;2.03;;
76689;SDS011;70102;44.506;0.220;2023-05-16T04:41:41;7.50;;;2.23;;
76689;SDS011;70102;44.506;0.220;2023-05-16T04:47:15;3.20;;;1.77;;
76689;SDS011;70102;44.506;0.220;2023-05-16T04:52:48;3.33;;;2.23;;
76689;SDS011;70102;44.506;0.220;2023-05-16T04:58:21;3.63;;;2.30;;
76689;SDS011;70102;44.506;0.220;2023-05-16T05:03:54;4.57;;;2.20;;
76689;SDS011;70102;44.506;0.220;2023-05-16T05:09:27;3.10;;;2.83;;
76689;SDS011;70102;44.506;0.220;2023-05-16T05:15:00;2.47;;;2.27;;
76689;SDS011;70102;44.506;0.220;2023-05-16T05:20:34;4.73;;;2.17;;
76689;SDS011;70102;44.506;0.220;2023-05-16T05:26:08;2.53;;;1.97;;
76689;SDS011;70102;44.506;0.220;2023-05-16T05:31:40;3.07;;;2.53;;
76689;SDS011;70102;44.506;0.220;2023-05-16T05:37:12;3.87;;;2.97;;
76689;SDS011;70102;44.506;0.220;2023-05-16T05:42:44;3.33;;;3.03;;
76689;SDS011;70102;44.506;0.220;2023-05-16T05:48:17;5.90;;;3.60;;
76689;SDS011;70102;44.506;0.220;2023-05-16T05:53:50;5.07;;;3.70;;
76689;SDS011;70102;44.506;0.220;2023-05-16T05:59:24;7.40;;;3.73;;
76689;SDS011;70102;44.506;0.220;2023-05-16T06:04:56;10.77;;;4.10;;
76689;SDS011;70102;44.506;0.220;2023-05-16T06:10:29;5.10;;;3.50;;
76689;SDS011;70102;44.506;0.220;2023-05-16T06:16:02;9.27;;;3.73;;
76689;SDS011;70102;44.506;0.220;2023-05-16T06:21:34;3.97;;;3.50;;
76689;SDS011;70102;44.506;0.220;2023-05-16T06:27:07;6.50;;;3.77;;
76689;SDS011;70102;44.506;0.220;2023-05-16T06:32:40;5.40;;;3.10;;
76689;SDS011;70102;44.506;0.220;2023-05-16T06:38:13;4.10;;;2.97;;
76689;SDS011;70102;44.506;0.220;2023-05-16T06:43:45;3.73;;;3.00;;
76689;SDS011;70102;44.506;0.220;2023-05-16T06:49:19;4.03;;;2.77;;
76689;SDS011;70102;44.506;0.220;2023-05-16T07:00:24;6.20;;;3.27;;
76689;SDS011;70102;44.506;0.220;2023-05-16T07:05:57;7.23;;;3.00;;
76689;SDS011;70102;44.506;0.220;2023-05-16T07:11:31;4.93;;;2.13;;
76689;SDS011;70102;44.506;0.220;2023-05-16T07:17:05;3.67;;;2.17;;
76689;SDS011;70102;44.506;0.220;2023-05-16T07:22:38;1.93;;;1.73;;
76689;SDS011;70102;44.506;0.220;2023-05-16T07:28:09;7.37;;;2.53;;
76689;SDS011;70102;44.506;0.220;2023-05-16T07:33:44;3.93;;;2.57;;
76689;SDS011;70102;44.506;0.220;2023-05-16T07:39:17;5.23;;;2.50;;
76689;SDS011;70102;44.506;0.220;2023-05-16T07:44:50;5.00;;;3.33;;
76689;SDS011;70102;44.506;0.220;2023-05-16T07:50:23;5.37;;;2.47;;
76689;SDS011;70102;44.506;0.220;2023-05-16T07:55:56;3.87;;;2.60;;
76689;SDS011;70102;44.506;0.220;2023-05-16T08:01:28;2.00;;;1.70;;
76689;SDS011;70102;44.506;0.220;2023-05-16T08:07:01;2.77;;;2.50;;
76689;SDS011;70102;44.506;0.220;2023-05-16T08:12:35;4.10;;;2.17;;
76689;SDS011;70102;44.506;0.220;2023-05-16T08:18:11;3.27;;;1.80;;
76689;SDS011;70102;44.506;0.220;2023-05-16T08:23:42;3.30;;;1.80;;
76689;SDS011;70102;44.506;0.220;2023-05-16T08:29:15;6.07;;;1.63;;
76689;SDS011;70102;44.506;0.220;2023-05-16T08:34:48;6.77;;;1.87;;
76689;SDS011;70102;44.506;0.220;2023-05-16T08:40:22;2.83;;;1.40;;
76689;SDS011;70102;44.506;0.220;2023-05-16T08:45:54;3.27;;;2.97;;
76689;SDS011;70102;44.506;0.220;2023-05-16T08:51:27;4.40;;;1.60;;
76689;SDS011;70102;44.506;0.220;2023-05-16T08:57:00;5.03;;;2.93;;
76689;SDS011;70102;44.506;0.220;2023-05-16T09:02:34;5.77;;;2.10;;
76689;SDS011;70102;44.506;0.220;2023-05-16T09:08:07;4.93;;;1.63;;
76689;SDS011;70102;44.506;0.220;2023-05-16T09:13:40;4.03;;;1.67;;
76689;SDS011;70102;44.506;0.220;2023-05-16T09:19:13;3.00;;;1.47;;
76689;SDS011;70102;44.506;0.220;2023-05-16T09:24:46;4.63;;;1.50;;
76689;SDS011;70102;44.506;0.220;2023-05-16T09:30:20;3.57;;;1.30;;
76689;SDS011;70102;44.506;0.220;2023-05-16T09:35:54;2.00;;;1.50;;
76689;SDS011;70102;44.506;0.220;2023-05-16T09:41:25;2.60;;;1.20;;
76689;SDS011;70102;44.506;0.220;2023-05-16T09:46:59;2.30;;;1.30;;
76689;SDS011;70102;44.506;0.220;2023-05-16T09:52:33;2.40;;;1.40;;
76689;SDS011;70102;44.506;0.220;2023-05-16T09:58:05;1.93;;;1.10;;
76689;SDS011;70102;44.506;0.220;2023-05-16T10:03:39;2.83;;;1.10;;
76689;SDS011;70102;44.506;0.220;2023-05-16T10:09:11;5.43;;;1.67;;
76689;SDS011;70102;44.506;0.220;2023-05-16T10:14:42;2.30;;;1.10;;
76689;SDS011;70102;44.506;0.220;2023-05-16T10:20:15;3.53;;;1.60;;
76689;SDS011;70102;44.506;0.220;2023-05-16T10:25:48;6.33;;;1.17;;
76689;SDS011;70102;44.506;0.220;2023-05-16T10:31:21;4.73;;;1.50;;
76689;SDS011;70102;44.506;0.220;2023-05-16T10:36:55;1.97;;;1.53;;
76689;SDS011;70102;44.506;0.220;2023-05-16T10:42:27;3.10;;;1.37;;
76689;SDS011;70102;44.506;0.220;2023-05-16T10:48:00;2.70;;;1.10;;
76689;SDS011;70102;44.506;0.220;2023-05-16T10:53:32;1.23;;;1.00;;
76689;SDS011;70102;44.506;0.220;2023-05-16T10:59:04;4.67;;;1.30;;
76689;SDS011;70102;44.506;0.220;2023-05-16T11:04:44;7.60;;;1.60;;
76689;SDS011;70102;44.506;0.220;2023-05-16T11:10:10;6.57;;;1.10;;
76689;SDS011;70102;44.506;0.220;2023-05-16T11:15:42;4.80;;;1.07;;
76689;SDS011;70102;44.506;0.220;2023-05-16T11:21:14;3.17;;;1.13;;
76689;SDS011;70102;44.506;0.220;2023-05-16T11:26:47;2.60;;;1.10;;
76689;SDS011;70102;44.506;0.220;2023-05-16T11:32:22;1.67;;;1.43;;
76689;SDS011;70102;44.506;0.220;2023-05-16T11:37:56;4.87;;;2.90;;
76689;SDS011;70102;44.506;0.220;2023-05-16T11:43:28;3.03;;;2.30;;
76689;SDS011;70102;44.506;0.220;2023-05-16T11:49:02;3.90;;;1.60;;
76689;SDS011;70102;44.506;0.220;2023-05-16T11:54:34;6.20;;;1.17;;
76689;SDS011;70102;44.506;0.220;2023-05-16T12:00:13;2.30;;;1.03;;
76689;SDS011;70102;44.506;0.220;2023-05-16T12:05:39;2.50;;;1.20;;
76689;SDS011;70102;44.506;0.220;2023-05-16T12:11:12;3.00;;;1.13;;
76689;SDS011;70102;44.506;0.220;2023-05-16T12:16:44;1.90;;;1.00;;
76689;SDS011;70102;44.506;0.220;2023-05-16T12:22:18;4.57;;;1.00;;
76689;SDS011;70102;44.506;0.220;2023-05-16T12:27:52;1.30;;;0.93;;
76689;SDS011;70102;44.506;0.220;2023-05-16T12:33:24;3.97;;;1.20;;
76689;SDS011;70102;44.506;0.220;2023-05-16T12:38:59;2.70;;;0.93;;
76689;SDS011;70102;44.506;0.220;2023-05-16T12:44:30;2.70;;;1.43;;
76689;SDS011;70102;44.506;0.220;2023-05-16T12:50:02;2.60;;;1.07;;
76689;SDS011;70102;44.506;0.220;2023-05-16T12:55:35;1.63;;;0.90;;
76689;SDS011;70102;44.506;0.220;2023-05-16T13:01:08;1.90;;;1.57;;
76689;SDS011;70102;44.506;0.220;2023-05-16T13:06:42;2.80;;;0.90;;
76689;SDS011;70102;44.506;0.220;2023-05-16T13:12:15;3.37;;;1.20;;
76689;SDS011;70102;44.506;0.220;2023-05-16T13:17:48;5.77;;;1.03;;
76689;SDS011;70102;44.506;0.220;2023-05-16T13:23:22;1.27;;;0.70;;
76689;SDS011;70102;44.506;0.220;2023-05-16T13:28:53;2.80;;;1.03;;
76689;SDS011;70102;44.506;0.220;2023-05-16T13:34:27;2.80;;;1.00;;
76689;SDS011;70102;44.506;0.220;2023-05-16T13:39:59;4.63;;;1.37;;
76689;SDS011;70102;44.506;0.220;2023-05-16T13:45:32;1.60;;;0.90;;
76689;SDS011;70102;44.506;0.220;2023-05-16T13:51:05;3.63;;;1.40;;
76689;SDS011;70102;44.506;0.220;2023-05-16T13:56:38;5.03;;;1.20;;
76689;SDS011;70102;44.506;0.220;2023-05-16T14:02:11;7.30;;;1.20;;
76689;SDS011;70102;44.506;0.220;2023-05-16T14:07:44;3.47;;;1.00;;
76689;SDS011;70102;44.506;0.220;2023-05-16T14:13:17;4.10;;;0.97;;
76689;SDS011;70102;44.506;0.220;2023-05-16T14:18:50;1.73;;;0.90;;
76689;SDS011;70102;44.506;0.220;2023-05-16T14:24:22;1.13;;;0.93;;
76689;SDS011;70102;44.506;0.220;2023-05-16T14:29:56;1.77;;;1.00;;
76689;SDS011;70102;44.506;0.220;2023-05-16T14:35:28;1.83;;;0.83;;
76689;SDS011;70102;44.506;0.220;2023-05-16T14:41:02;2.03;;;1.00;;
76689;SDS011;70102;44.506;0.220;2023-05-16T14:46:35;2.63;;;1.67;;
76689;SDS011;70102;44.506;0.220;2023-05-16T14:52:08;3.83;;;0.97;;
76689;SDS011;70102;44.506;0.220;2023-05-16T14:57:41;3.53;;;1.00;;
76689;SDS011;70102;44.506;0.220;2023-05-16T15:03:15;3.43;;;1.20;;
76689;SDS011;70102;44.506;0.220;2023-05-16T15:08:46;1.27;;;1.17;;
76689;SDS011;70102;44.506;0.220;2023-05-16T15:14:20;2.27;;;1.23;;
76689;SDS011;70102;44.506;0.220;2023-05-16T15:19:53;2.57;;;1.10;;
76689;SDS011;70102;44.506;0.220;2023-05-16T15:25:25;4.03;;;1.10;;
76689;SDS011;70102;44.506;0.220;2023-05-16T15:30:57;3.93;;;1.03;;
76689;SDS011;70102;44.506;0.220;2023-05-16T15:36:31;1.67;;;0.83;;
76689;SDS011;70102;44.506;0.220;2023-05-16T15:42:05;4.17;;;0.87;;
76689;SDS011;70102;44.506;0.220;2023-05-16T15:47:38;3.50;;;1.50;;
76689;SDS011;70102;44.506;0.220;2023-05-16T15:53:10;4.17;;;1.27;;
76689;SDS011;70102;44.506;0.220;2023-05-16T15:58:42;2.53;;;0.93;;
76689;SDS011;70102;44.506;0.220;2023-05-16T16:04:16;3.27;;;1.10;;
76689;SDS011;70102;44.506;0.220;2023-05-16T16:09:47;1.50;;;0.90;;
76689;SDS011;70102;44.506;0.220;2023-05-16T16:15:20;2.80;;;0.80;;
76689;SDS011;70102;44.506;0.220;2023-05-16T16:20:52;2.70;;;1.17;;
76689;SDS011;70102;44.506;0.220;2023-05-16T16:26:24;6.37;;;1.00;;
76689;SDS011;70102;44.506;0.220;2023-05-16T16:31:57;6.57;;;1.07;;
76689;SDS011;70102;44.506;0.220;2023-05-16T16:37:31;3.23;;;0.80;;
76689;SDS011;70102;44.506;0.220;2023-05-16T16:43:03;2.73;;;0.90;;
76689;SDS011;70102;44.506;0.220;2023-05-16T16:48:35;5.13;;;1.20;;
76689;SDS011;70102;44.506;0.220;2023-05-16T16:54:08;3.63;;;0.80;;
76689;SDS011;70102;44.506;0.220;2023-05-16T16:59:40;3.10;;;1.30;;
76689;SDS011;70102;44.506;0.220;2023-05-16T17:05:13;4.30;;;1.30;;
76689;SDS011;70102;44.506;0.220;2023-05-16T17:10:46;4.57;;;1.13;;
76689;SDS011;70102;44.506;0.220;2023-05-16T17:16:19;1.50;;;0.80;;
76689;SDS011;70102;44.506;0.220;2023-05-16T17:27:24;4.93;;;0.87;;
76689;SDS011;70102;44.506;0.220;2023-05-16T17:32:57;4.53;;;1.00;;
76689;SDS011;70102;44.506;0.220;2023-05-16T17:38:30;3.37;;;1.00;;
76689;SDS011;70102;44.506;0.220;2023-05-16T17:44:02;2.77;;;1.17;;
76689;SDS011;70102;44.506;0.220;2023-05-16T17:49:35;4.23;;;0.93;;
76689;SDS011;70102;44.506;0.220;2023-05-16T17:55:08;3.33;;;1.17;;
76689;SDS011;70102;44.506;0.220;2023-05-16T18:00:40;2.80;;;1.27;;
76689;SDS011;70102;44.506;0.220;2023-05-16T18:06:12;3.73;;;0.87;;
76689;SDS011;70102;44.506;0.220;2023-05-16T18:11:44;6.27;;;0.80;;
76689;SDS011;70102;44.506;0.220;2023-05-16T18:17:17;1.30;;;0.73;;
76689;SDS011;70102;44.506;0.220;2023-05-16T18:22:49;3.17;;;0.90;;
76689;SDS011;70102;44.506;0.220;2023-05-16T18:28:22;2.57;;;0.83;;
76689;SDS011;70102;44.506;0.220;2023-05-16T18:33:55;3.50;;;1.00;;
76689;SDS011;70102;44.506;0.220;2023-05-16T18:39:28;2.23;;;0.70;;
76689;SDS011;70102;44.506;0.220;2023-05-16T18:45:01;3.13;;;1.00;;
76689;SDS011;70102;44.506;0.220;2023-05-16T18:50:33;1.67;;;0.73;;
76689;SDS011;70102;44.506;0.220;2023-05-16T18:56:07;2.57;;;1.13;;
76689;SDS011;70102;44.506;0.220;2023-05-16T19:01:40;5.30;;;1.27;;
76689;SDS011;70102;44.506;0.220;2023-05-16T19:07:13;3.47;;;1.73;;
76689;SDS011;70102;44.506;0.220;2023-05-16T19:12:45;2.67;;;1.00;;
76689;SDS011;70102;44.506;0.220;2023-05-16T19:18:18;3.07;;;1.17;;
76689;SDS011;70102;44.506;0.220;2023-05-16T19:23:52;5.47;;;1.00;;
76689;SDS011;70102;44.506;0.220;2023-05-16T19:29:25;1.30;;;1.10;;
76689;SDS011;70102;44.506;0.220;2023-05-16T19:34:57;3.07;;;1.13;;
76689;SDS011;70102;44.506;0.220;2023-05-16T19:40:31;1.10;;;0.60;;
76689;SDS011;70102;44.506;0.220;2023-05-16T19:46:03;1.83;;;1.20;;
76689;SDS011;70102;44.506;0.220;2023-05-16T19:51:36;3.17;;;0.93;;
76689;SDS011;70102;44.506;0.220;2023-05-16T19:57:09;2.87;;;1.13;;
76689;SDS011;70102;44.506;0.220;2023-05-16T20:02:42;4.20;;;1.20;;
76689;SDS011;70102;44.506;0.220;2023-05-16T20:08:15;4.63;;;2.80;;
76689;SDS011;70102;44.506;0.220;2023-05-16T20:13:47;3.70;;;1.03;;
76689;SDS011;70102;44.506;0.220;2023-05-16T20:19:21;2.17;;;0.93;;
76689;SDS011;70102;44.506;0.220;2023-05-16T20:24:53;2.70;;;1.47;;
76689;SDS011;70102;44.506;0.220;2023-05-16T20:30:26;5.80;;;2.10;;
76689;SDS011;70102;44.506;0.220;2023-05-16T20:35:59;2.83;;;1.03;;
76689;SDS011;70102;44.506;0.220;2023-05-16T20:41:31;1.37;;;0.83;;
76689;SDS011;70102;44.506;0.220;2023-05-16T20:47:04;2.90;;;1.10;;
76689;SDS011;70102;44.506;0.220;2023-05-16T20:52:36;1.37;;;1.10;;
76689;SDS011;70102;44.506;0.220;2023-05-16T20:58:09;2.43;;;1.10;;
76689;SDS011;70102;44.506;0.220;2023-05-16T21:09:16;0.80;;;0.80;;
76689;SDS011;70102;44.506;0.220;2023-05-16T21:14:49;5.93;;;1.23;;
76689;SDS011;70102;44.506;0.220;2023-05-16T21:20:22;1.07;;;0.70;;
76689;SDS011;70102;44.506;0.220;2023-05-16T21:25:54;9.87;;;1.90;;
76689;SDS011;70102;44.506;0.220;2023-05-16T21:31:27;1.90;;;0.67;;
76689;SDS011;70102;44.506;0.220;2023-05-16T21:37:00;3.23;;;0.90;;
76689;SDS011;70102;44.506;0.220;2023-05-16T21:42:34;2.23;;;0.97;;
76689;SDS011;70102;44.506;0.220;2023-05-16T21:48:08;4.67;;;0.83;;
76689;SDS011;70102;44.506;0.220;2023-05-16T21:53:42;5.53;;;1.17;;
76689;SDS011;70102;44.506;0.220;2023-05-16T21:59:13;1.67;;;1.00;;
76689;SDS011;70102;44.506;0.220;2023-05-16T22:04:47;1.53;;;1.40;;
76689;SDS011;70102;44.506;0.220;2023-05-16T22:10:21;5.43;;;0.67;;
76689;SDS011;70102;44.506;0.220;2023-05-16T22:15:53;1.43;;;1.00;;
76689;SDS011;70102;44.506;0.220;2023-05-16T22:21:27;5.30;;;0.80;;
76689;SDS011;70102;44.506;0.220;2023-05-16T22:26:59;5.20;;;0.73;;
76689;SDS011;70102;44.506;0.220;2023-05-16T22:32:32;2.00;;;0.80;;
76689;SDS011;70102;44.506;0.220;2023-05-16T22:38:06;7.07;;;1.63;;
76689;SDS011;70102;44.506;0.220;2023-05-16T22:43:38;0.83;;;0.67;;
76689;SDS011;70102;44.506;0.220;2023-05-16T22:49:11;2.67;;;0.90;;
76689;SDS011;70102;44.506;0.220;2023-05-16T22:54:44;0.90;;;0.77;;
76689;SDS011;70102;44.506;0.220;2023-05-16T23:00:18;1.20;;;0.77;;
76689;SDS011;70102;44.506;0.220;2023-05-16T23:05:51;3.93;;;0.63;;
76689;SDS011;70102;44.506;0.220;2023-05-16T23:11:24;2.10;;;0.90;;
76689;SDS011;70102;44.506;0.220;2023-05-16T23:16:58;4.27;;;0.97;;
76689;SDS011;70102;44.506;0.220;2023-05-16T23:22:30;2.63;;;0.90;;
76689;SDS011;70102;44.506;0.220;2023-05-16T23:28:04;7.80;;;2.23;;
76689;SDS011;70102;44.506;0.220;2023-05-16T23:33:36;2.27;;;0.73;;
76689;SDS011;70102;44.506;0.220;2023-05-16T23:39:09;2.87;;;0.73;;
76689;SDS011;70102;44.506;0.220;2023-05-16T23:44:43;5.63;;;1.10;;
76689;SDS011;70102;44.506;0.220;2023-05-16T23:50:15;3.17;;;1.03;;
76689;SDS011;70102;44.506;0.220;2023-05-16T23:55:48;2.50;;;1.00;;
